sensor_id;sensor_type;location;lat;lon;timestamp;P1;durP1;ratioP1;P2;durP2;ratioP2
73779;SDS011;62093;37.614;15.072;2023-03-23T00:01:09;7.82;;;5.10;;
73779;SDS011;62093;37.614;15.072;2023-03-23T00:03:38;7.82;;;5.13;;
73779;SDS011;62093;37.614;15.072;2023-03-23T00:06:05;7.80;;;5.07;;
73779;SDS011;62093;37.614;15.072;2023-03-23T00:08:32;7.60;;;5.35;;
73779;SDS011;62093;37.614;15.072;2023-03-23T00:11:05;7.47;;;4.97;;
73779;SDS011;62093;37.614;15.072;2023-03-23T00:13:31;7.32;;;5.50;;
73779;SDS011;62093;37.614;15.072;2023-03-23T00:15:58;7.30;;;5.25;;
73779;SDS011;62093;37.614;15.072;2023-03-23T00:18:24;8.27;;;5.47;;
73779;SDS011;62093;37.614;15.072;2023-03-23T00:20:51;7.72;;;5.35;;
73779;SDS011;62093;37.614;15.072;2023-03-23T00:23:19;8.50;;;5.53;;
73779;SDS011;62093;37.614;15.072;2023-03-23T00:25:52;8.80;;;5.55;;
73779;SDS011;62093;37.614;15.072;2023-03-23T00:28:22;7.90;;;5.20;;
73779;SDS011;62093;37.614;15.072;2023-03-23T00:30:58;8.03;;;5.50;;
73779;SDS011;62093;37.614;15.072;2023-03-23T00:33:27;7.47;;;5.05;;
73779;SDS011;62093;37.614;15.072;2023-03-23T00:35:55;8.20;;;5.45;;
73779;SDS011;62093;37.614;15.072;2023-03-23T00:38:22;7.75;;;5.10;;
73779;SDS011;62093;37.614;15.072;2023-03-23T00:40:49;8.18;;;5.13;;
73779;SDS011;62093;37.614;15.072;2023-03-23T00:43:16;8.33;;;4.87;;
73779;SDS011;62093;37.614;15.072;2023-03-23T00:45:43;7.43;;;4.95;;
73779;SDS011;62093;37.614;15.072;2023-03-23T00:48:21;7.93;;;5.20;;
73779;SDS011;62093;37.614;15.072;2023-03-23T00:50:48;8.02;;;5.55;;
73779;SDS011;62093;37.614;15.072;2023-03-23T00:53:16;8.27;;;5.47;;
73779;SDS011;62093;37.614;15.072;2023-03-23T00:55:43;7.90;;;5.50;;
73779;SDS011;62093;37.614;15.072;2023-03-23T00:58:11;7.97;;;5.00;;
73779;SDS011;62093;37.614;15.072;2023-03-23T01:00:38;7.63;;;5.15;;
73779;SDS011;62093;37.614;15.072;2023-03-23T01:03:04;7.68;;;5.15;;
73779;SDS011;62093;37.614;15.072;2023-03-23T01:05:35;8.32;;;5.68;;
73779;SDS011;62093;37.614;15.072;2023-03-23T01:08:02;8.63;;;5.50;;
73779;SDS011;62093;37.614;15.072;2023-03-23T01:10:29;8.32;;;5.25;;
73779;SDS011;62093;37.614;15.072;2023-03-23T01:12:58;8.57;;;5.40;;
73779;SDS011;62093;37.614;15.072;2023-03-23T01:15:28;7.65;;;5.25;;
73779;SDS011;62093;37.614;15.072;2023-03-23T01:17:55;8.43;;;5.55;;
73779;SDS011;62093;37.614;15.072;2023-03-23T01:20:22;8.10;;;5.63;;
73779;SDS011;62093;37.614;15.072;2023-03-23T01:22:48;7.90;;;5.43;;
73779;SDS011;62093;37.614;15.072;2023-03-23T01:25:15;7.40;;;5.03;;
73779;SDS011;62093;37.614;15.072;2023-03-23T01:27:41;8.57;;;5.40;;
73779;SDS011;62093;37.614;15.072;2023-03-23T01:30:08;8.13;;;5.13;;
73779;SDS011;62093;37.614;15.072;2023-03-23T01:32:37;7.57;;;4.90;;
73779;SDS011;62093;37.614;15.072;2023-03-23T01:35:04;8.73;;;5.15;;
73779;SDS011;62093;37.614;15.072;2023-03-23T01:37:30;7.32;;;5.00;;
73779;SDS011;62093;37.614;15.072;2023-03-23T01:39:56;7.78;;;5.15;;
73779;SDS011;62093;37.614;15.072;2023-03-23T01:42:23;7.23;;;4.90;;
73779;SDS011;62093;37.614;15.072;2023-03-23T01:47:18;8.30;;;5.40;;
73779;SDS011;62093;37.614;15.072;2023-03-23T01:49:50;7.85;;;5.00;;
73779;SDS011;62093;37.614;15.072;2023-03-23T01:52:22;7.97;;;4.95;;
73779;SDS011;62093;37.614;15.072;2023-03-23T01:54:57;8.20;;;5.13;;
73779;SDS011;62093;37.614;15.072;2023-03-23T01:57:24;7.97;;;5.28;;
73779;SDS011;62093;37.614;15.072;2023-03-23T01:59:57;8.15;;;5.07;;
73779;SDS011;62093;37.614;15.072;2023-03-23T02:02:48;7.60;;;5.18;;
73779;SDS011;62093;37.614;15.072;2023-03-23T02:05:38;7.82;;;5.13;;
73779;SDS011;62093;37.614;15.072;2023-03-23T02:08:20;7.90;;;5.33;;
73779;SDS011;62093;37.614;15.072;2023-03-23T02:10:46;7.88;;;5.35;;
73779;SDS011;62093;37.614;15.072;2023-03-23T02:13:12;7.93;;;5.30;;
73779;SDS011;62093;37.614;15.072;2023-03-23T02:34:20;7.50;;;5.03;;
73779;SDS011;62093;37.614;15.072;2023-03-23T02:39:21;8.55;;;5.40;;
73779;SDS011;62093;37.614;15.072;2023-03-23T02:41:58;7.72;;;5.38;;
73779;SDS011;62093;37.614;15.072;2023-03-23T02:44:30;8.17;;;5.00;;
73779;SDS011;62093;37.614;15.072;2023-03-23T02:46:59;8.43;;;5.70;;
73779;SDS011;62093;37.614;15.072;2023-03-23T02:49:29;7.82;;;4.90;;
73779;SDS011;62093;37.614;15.072;2023-03-23T02:51:58;7.18;;;4.93;;
73779;SDS011;62093;37.614;15.072;2023-03-23T02:54:26;7.28;;;5.40;;
73779;SDS011;62093;37.614;15.072;2023-03-23T02:56:54;7.20;;;4.90;;
73779;SDS011;62093;37.614;15.072;2023-03-23T02:59:25;8.15;;;5.22;;
73779;SDS011;62093;37.614;15.072;2023-03-23T03:01:54;8.20;;;5.47;;
73779;SDS011;62093;37.614;15.072;2023-03-23T03:04:24;9.13;;;6.00;;
73779;SDS011;62093;37.614;15.072;2023-03-23T03:09:53;8.13;;;5.77;;
73779;SDS011;62093;37.614;15.072;2023-03-23T03:12:27;7.82;;;5.35;;
73779;SDS011;62093;37.614;15.072;2023-03-23T03:15:23;9.05;;;5.80;;
73779;SDS011;62093;37.614;15.072;2023-03-23T03:18:14;8.02;;;5.45;;
73779;SDS011;62093;37.614;15.072;2023-03-23T03:21:02;7.97;;;5.15;;
73779;SDS011;62093;37.614;15.072;2023-03-23T03:23:33;8.47;;;5.33;;
73779;SDS011;62093;37.614;15.072;2023-03-23T03:26:02;7.05;;;4.57;;
73779;SDS011;62093;37.614;15.072;2023-03-23T03:28:46;7.25;;;4.90;;
73779;SDS011;62093;37.614;15.072;2023-03-23T03:31:15;7.38;;;4.85;;
73779;SDS011;62093;37.614;15.072;2023-03-23T03:33:44;7.40;;;5.00;;
73779;SDS011;62093;37.614;15.072;2023-03-23T03:36:18;7.70;;;4.77;;
73779;SDS011;62093;37.614;15.072;2023-03-23T03:38:48;8.15;;;5.22;;
73779;SDS011;62093;37.614;15.072;2023-03-23T03:41:16;9.07;;;5.50;;
73779;SDS011;62093;37.614;15.072;2023-03-23T03:43:44;7.85;;;5.05;;
73779;SDS011;62093;37.614;15.072;2023-03-23T03:46:11;8.23;;;5.05;;
73779;SDS011;62093;37.614;15.072;2023-03-23T03:48:38;8.93;;;5.43;;
73779;SDS011;62093;37.614;15.072;2023-03-23T03:51:04;7.30;;;5.30;;
73779;SDS011;62093;37.614;15.072;2023-03-23T03:53:33;7.32;;;5.18;;
73779;SDS011;62093;37.614;15.072;2023-03-23T03:55:59;8.07;;;4.88;;
73779;SDS011;62093;37.614;15.072;2023-03-23T03:58:34;7.70;;;5.07;;
73779;SDS011;62093;37.614;15.072;2023-03-23T04:01:27;8.03;;;5.67;;
73779;SDS011;62093;37.614;15.072;2023-03-23T04:03:54;9.20;;;5.10;;
73779;SDS011;62093;37.614;15.072;2023-03-23T04:06:30;7.38;;;5.00;;
73779;SDS011;62093;37.614;15.072;2023-03-23T04:08:59;8.00;;;5.20;;
73779;SDS011;62093;37.614;15.072;2023-03-23T04:11:31;7.70;;;5.35;;
73779;SDS011;62093;37.614;15.072;2023-03-23T04:14:16;7.90;;;5.00;;
73779;SDS011;62093;37.614;15.072;2023-03-23T04:16:44;7.68;;;5.40;;
73779;SDS011;62093;37.614;15.072;2023-03-23T04:19:10;7.72;;;5.00;;
73779;SDS011;62093;37.614;15.072;2023-03-23T04:21:37;8.27;;;5.22;;
73779;SDS011;62093;37.614;15.072;2023-03-23T04:24:04;6.97;;;4.87;;
73779;SDS011;62093;37.614;15.072;2023-03-23T04:26:31;7.90;;;5.03;;
73779;SDS011;62093;37.614;15.072;2023-03-23T04:29:05;7.65;;;5.10;;
73779;SDS011;62093;37.614;15.072;2023-03-23T04:31:34;8.77;;;5.93;;
73779;SDS011;62093;37.614;15.072;2023-03-23T04:34:23;8.45;;;5.72;;
73779;SDS011;62093;37.614;15.072;2023-03-23T04:36:51;8.93;;;5.63;;
73779;SDS011;62093;37.614;15.072;2023-03-23T04:39:22;7.97;;;5.50;;
73779;SDS011;62093;37.614;15.072;2023-03-23T04:41:51;8.07;;;5.70;;
73779;SDS011;62093;37.614;15.072;2023-03-23T04:44:35;8.40;;;5.55;;
73779;SDS011;62093;37.614;15.072;2023-03-23T04:47:12;9.30;;;6.30;;
73779;SDS011;62093;37.614;15.072;2023-03-23T04:49:45;8.07;;;5.20;;
73779;SDS011;62093;37.614;15.072;2023-03-23T04:52:25;8.02;;;5.75;;
73779;SDS011;62093;37.614;15.072;2023-03-23T04:54:56;8.38;;;5.40;;
73779;SDS011;62093;37.614;15.072;2023-03-23T04:57:23;8.65;;;5.85;;
73779;SDS011;62093;37.614;15.072;2023-03-23T05:00:11;9.23;;;6.38;;
73779;SDS011;62093;37.614;15.072;2023-03-23T05:02:42;8.37;;;6.00;;
73779;SDS011;62093;37.614;15.072;2023-03-23T05:05:13;9.38;;;6.32;;
73779;SDS011;62093;37.614;15.072;2023-03-23T05:07:40;8.52;;;5.63;;
73779;SDS011;62093;37.614;15.072;2023-03-23T05:10:08;8.43;;;5.82;;
73779;SDS011;62093;37.614;15.072;2023-03-23T05:12:36;9.23;;;6.10;;
73779;SDS011;62093;37.614;15.072;2023-03-23T05:15:07;7.93;;;5.43;;
73779;SDS011;62093;37.614;15.072;2023-03-23T05:17:34;8.70;;;6.10;;
73779;SDS011;62093;37.614;15.072;2023-03-23T05:20:10;8.30;;;5.80;;
73779;SDS011;62093;37.614;15.072;2023-03-23T05:22:44;8.23;;;5.47;;
73779;SDS011;62093;37.614;15.072;2023-03-23T05:25:13;8.57;;;6.00;;
73779;SDS011;62093;37.614;15.072;2023-03-23T05:27:43;8.40;;;5.90;;
73779;SDS011;62093;37.614;15.072;2023-03-23T05:30:20;8.20;;;5.72;;
73779;SDS011;62093;37.614;15.072;2023-03-23T05:32:49;7.85;;;5.30;;
73779;SDS011;62093;37.614;15.072;2023-03-23T05:35:31;8.55;;;5.60;;
73779;SDS011;62093;37.614;15.072;2023-03-23T05:37:57;7.65;;;5.25;;
73779;SDS011;62093;37.614;15.072;2023-03-23T05:40:23;8.87;;;6.03;;
73779;SDS011;62093;37.614;15.072;2023-03-23T05:43:07;8.43;;;5.95;;
73779;SDS011;62093;37.614;15.072;2023-03-23T05:45:43;8.00;;;5.45;;
73779;SDS011;62093;37.614;15.072;2023-03-23T05:48:09;9.50;;;6.63;;
73779;SDS011;62093;37.614;15.072;2023-03-23T05:50:35;8.00;;;5.40;;
73779;SDS011;62093;37.614;15.072;2023-03-23T05:53:02;7.57;;;5.40;;
73779;SDS011;62093;37.614;15.072;2023-03-23T05:55:31;8.00;;;5.65;;
73779;SDS011;62093;37.614;15.072;2023-03-23T05:58:17;7.70;;;5.50;;
73779;SDS011;62093;37.614;15.072;2023-03-23T06:00:45;8.80;;;5.82;;
73779;SDS011;62093;37.614;15.072;2023-03-23T06:03:19;8.50;;;6.10;;
73779;SDS011;62093;37.614;15.072;2023-03-23T06:05:56;7.40;;;4.97;;
73779;SDS011;62093;37.614;15.072;2023-03-23T06:08:30;8.63;;;5.40;;
73779;SDS011;62093;37.614;15.072;2023-03-23T06:10:56;9.15;;;6.28;;
73779;SDS011;62093;37.614;15.072;2023-03-23T06:13:22;9.00;;;6.22;;
73779;SDS011;62093;37.614;15.072;2023-03-23T06:15:54;8.43;;;5.55;;
73779;SDS011;62093;37.614;15.072;2023-03-23T06:18:41;8.47;;;5.40;;
73779;SDS011;62093;37.614;15.072;2023-03-23T06:21:40;8.77;;;5.28;;
73779;SDS011;62093;37.614;15.072;2023-03-23T06:24:16;7.75;;;4.75;;
73779;SDS011;62093;37.614;15.072;2023-03-23T06:26:42;8.18;;;5.60;;
73779;SDS011;62093;37.614;15.072;2023-03-23T06:29:14;7.82;;;5.63;;
73779;SDS011;62093;37.614;15.072;2023-03-23T06:31:45;7.63;;;5.20;;
73779;SDS011;62093;37.614;15.072;2023-03-23T06:34:13;8.48;;;5.90;;
73779;SDS011;62093;37.614;15.072;2023-03-23T06:36:58;7.75;;;5.60;;
73779;SDS011;62093;37.614;15.072;2023-03-23T06:39:32;8.48;;;5.40;;
73779;SDS011;62093;37.614;15.072;2023-03-23T06:42:11;8.65;;;5.85;;
73779;SDS011;62093;37.614;15.072;2023-03-23T06:44:43;9.47;;;6.63;;
73779;SDS011;62093;37.614;15.072;2023-03-23T06:47:11;9.80;;;6.30;;
73779;SDS011;62093;37.614;15.072;2023-03-23T06:49:44;8.68;;;6.03;;
73779;SDS011;62093;37.614;15.072;2023-03-23T06:52:17;9.63;;;6.25;;
73779;SDS011;62093;37.614;15.072;2023-03-23T06:54:44;9.50;;;6.22;;
73779;SDS011;62093;37.614;15.072;2023-03-23T06:57:11;8.47;;;5.53;;
73779;SDS011;62093;37.614;15.072;2023-03-23T06:59:37;9.32;;;6.75;;
73779;SDS011;62093;37.614;15.072;2023-03-23T07:02:04;9.48;;;6.07;;
73779;SDS011;62093;37.614;15.072;2023-03-23T07:04:31;8.88;;;6.03;;
73779;SDS011;62093;37.614;15.072;2023-03-23T07:07:09;9.43;;;6.18;;
73779;SDS011;62093;37.614;15.072;2023-03-23T07:09:45;9.17;;;5.97;;
73779;SDS011;62093;37.614;15.072;2023-03-23T07:12:13;9.07;;;6.15;;
73779;SDS011;62093;37.614;15.072;2023-03-23T07:14:45;9.02;;;6.00;;
73779;SDS011;62093;37.614;15.072;2023-03-23T07:17:11;10.80;;;6.10;;
73779;SDS011;62093;37.614;15.072;2023-03-23T07:19:43;8.35;;;5.82;;
73779;SDS011;62093;37.614;15.072;2023-03-23T07:22:12;8.33;;;5.80;;
73779;SDS011;62093;37.614;15.072;2023-03-23T07:24:41;9.07;;;6.05;;
73779;SDS011;62093;37.614;15.072;2023-03-23T07:27:22;8.88;;;5.93;;
73779;SDS011;62093;37.614;15.072;2023-03-23T07:29:52;8.40;;;5.97;;
73779;SDS011;62093;37.614;15.072;2023-03-23T07:32:22;8.43;;;5.70;;
73779;SDS011;62093;37.614;15.072;2023-03-23T07:34:48;9.03;;;5.70;;
73779;SDS011;62093;37.614;15.072;2023-03-23T07:37:32;9.55;;;5.47;;
73779;SDS011;62093;37.614;15.072;2023-03-23T07:39:58;9.25;;;6.07;;
73779;SDS011;62093;37.614;15.072;2023-03-23T07:42:24;8.55;;;5.63;;
73779;SDS011;62093;37.614;15.072;2023-03-23T07:44:58;8.43;;;5.50;;
73779;SDS011;62093;37.614;15.072;2023-03-23T07:47:25;8.30;;;5.45;;
73779;SDS011;62093;37.614;15.072;2023-03-23T07:49:51;8.45;;;5.18;;
73779;SDS011;62093;37.614;15.072;2023-03-23T07:52:24;8.90;;;5.72;;
73779;SDS011;62093;37.614;15.072;2023-03-23T07:54:51;8.63;;;5.55;;
73779;SDS011;62093;37.614;15.072;2023-03-23T07:57:34;9.60;;;6.33;;
73779;SDS011;62093;37.614;15.072;2023-03-23T08:00:02;8.00;;;5.30;;
73779;SDS011;62093;37.614;15.072;2023-03-23T08:02:47;8.63;;;5.68;;
73779;SDS011;62093;37.614;15.072;2023-03-23T08:05:32;9.10;;;5.95;;
73779;SDS011;62093;37.614;15.072;2023-03-23T08:08:17;8.10;;;5.65;;
73779;SDS011;62093;37.614;15.072;2023-03-23T08:11:19;8.53;;;5.70;;
73779;SDS011;62093;37.614;15.072;2023-03-23T08:14:01;8.70;;;5.57;;
73779;SDS011;62093;37.614;15.072;2023-03-23T08:16:38;8.00;;;5.60;;
73779;SDS011;62093;37.614;15.072;2023-03-23T08:19:20;7.72;;;5.38;;
73779;SDS011;62093;37.614;15.072;2023-03-23T08:21:49;9.57;;;5.90;;
73779;SDS011;62093;37.614;15.072;2023-03-23T08:24:40;8.43;;;5.67;;
73779;SDS011;62093;37.614;15.072;2023-03-23T08:27:35;9.52;;;6.28;;
73779;SDS011;62093;37.614;15.072;2023-03-23T08:30:30;8.95;;;5.95;;
73779;SDS011;62093;37.614;15.072;2023-03-23T08:33:23;9.38;;;5.95;;
73779;SDS011;62093;37.614;15.072;2023-03-23T08:36:09;8.50;;;5.45;;
73779;SDS011;62093;37.614;15.072;2023-03-23T08:38:41;8.87;;;6.13;;
73779;SDS011;62093;37.614;15.072;2023-03-23T08:41:08;8.05;;;5.68;;
73779;SDS011;62093;37.614;15.072;2023-03-23T08:43:48;9.07;;;5.93;;
73779;SDS011;62093;37.614;15.072;2023-03-23T08:46:35;9.00;;;5.18;;
73779;SDS011;62093;37.614;15.072;2023-03-23T08:49:11;9.20;;;5.63;;
73779;SDS011;62093;37.614;15.072;2023-03-23T08:51:59;7.83;;;5.33;;
73779;SDS011;62093;37.614;15.072;2023-03-23T08:54:49;8.18;;;5.45;;
73779;SDS011;62093;37.614;15.072;2023-03-23T08:57:26;8.40;;;5.60;;
73779;SDS011;62093;37.614;15.072;2023-03-23T09:00:08;8.25;;;5.45;;
73779;SDS011;62093;37.614;15.072;2023-03-23T09:03:15;7.60;;;5.30;;
73779;SDS011;62093;37.614;15.072;2023-03-23T09:06:14;7.80;;;5.40;;
73779;SDS011;62093;37.614;15.072;2023-03-23T09:08:44;7.88;;;5.50;;
73779;SDS011;62093;37.614;15.072;2023-03-23T09:11:10;9.45;;;5.68;;
73779;SDS011;62093;37.614;15.072;2023-03-23T09:13:37;8.02;;;5.80;;
73779;SDS011;62093;37.614;15.072;2023-03-23T09:16:04;7.93;;;5.75;;
73779;SDS011;62093;37.614;15.072;2023-03-23T09:18:32;8.73;;;5.37;;
73779;SDS011;62093;37.614;15.072;2023-03-23T09:20:58;8.00;;;5.53;;
73779;SDS011;62093;37.614;15.072;2023-03-23T09:23:25;8.75;;;5.72;;
73779;SDS011;62093;37.614;15.072;2023-03-23T09:25:52;8.98;;;5.85;;
73779;SDS011;62093;37.614;15.072;2023-03-23T09:28:19;8.32;;;5.95;;
73779;SDS011;62093;37.614;15.072;2023-03-23T09:30:45;8.17;;;5.87;;
73779;SDS011;62093;37.614;15.072;2023-03-23T09:33:13;8.25;;;5.43;;
73779;SDS011;62093;37.614;15.072;2023-03-23T09:35:39;7.85;;;5.60;;
73779;SDS011;62093;37.614;15.072;2023-03-23T09:38:07;7.93;;;5.40;;
73779;SDS011;62093;37.614;15.072;2023-03-23T09:49:35;8.30;;;5.50;;
73779;SDS011;62093;37.614;15.072;2023-03-23T09:52:14;8.07;;;5.78;;
73779;SDS011;62093;37.614;15.072;2023-03-23T09:54:43;8.07;;;5.47;;
73779;SDS011;62093;37.614;15.072;2023-03-23T09:57:38;7.80;;;5.40;;
73779;SDS011;62093;37.614;15.072;2023-03-23T10:00:27;8.05;;;5.45;;
73779;SDS011;62093;37.614;15.072;2023-03-23T10:03:02;8.05;;;5.43;;
73779;SDS011;62093;37.614;15.072;2023-03-23T10:05:39;7.65;;;5.43;;
73779;SDS011;62093;37.614;15.072;2023-03-23T10:08:11;8.40;;;5.47;;
73779;SDS011;62093;37.614;15.072;2023-03-23T10:11:23;8.90;;;6.00;;
73779;SDS011;62093;37.614;15.072;2023-03-23T10:16:20;7.72;;;5.00;;
73779;SDS011;62093;37.614;15.072;2023-03-23T10:19:07;7.97;;;5.28;;
73779;SDS011;62093;37.614;15.072;2023-03-23T10:21:56;7.65;;;5.10;;
73779;SDS011;62093;37.614;15.072;2023-03-23T10:24:35;8.60;;;5.80;;
73779;SDS011;62093;37.614;15.072;2023-03-23T10:29:53;7.88;;;5.55;;
73779;SDS011;62093;37.614;15.072;2023-03-23T10:32:36;9.20;;;5.75;;
73779;SDS011;62093;37.614;15.072;2023-03-23T10:35:07;7.85;;;5.63;;
73779;SDS011;62093;37.614;15.072;2023-03-23T10:37:44;8.10;;;5.50;;
73779;SDS011;62093;37.614;15.072;2023-03-23T10:40:20;7.35;;;5.22;;
73779;SDS011;62093;37.614;15.072;2023-03-23T10:42:49;8.02;;;5.18;;
73779;SDS011;62093;37.614;15.072;2023-03-23T10:47:46;8.07;;;5.18;;
73779;SDS011;62093;37.614;15.072;2023-03-23T10:50:30;8.10;;;5.13;;
73779;SDS011;62093;37.614;15.072;2023-03-23T10:52:59;7.70;;;5.10;;
73779;SDS011;62093;37.614;15.072;2023-03-23T10:55:35;8.20;;;5.18;;
73779;SDS011;62093;37.614;15.072;2023-03-23T10:58:05;7.38;;;5.03;;
73779;SDS011;62093;37.614;15.072;2023-03-23T11:00:33;7.65;;;5.05;;
73779;SDS011;62093;37.614;15.072;2023-03-23T11:03:17;7.27;;;5.00;;
73779;SDS011;62093;37.614;15.072;2023-03-23T11:05:49;7.50;;;5.10;;
73779;SDS011;62093;37.614;15.072;2023-03-23T11:08:22;6.90;;;4.90;;
73779;SDS011;62093;37.614;15.072;2023-03-23T11:13:43;8.23;;;5.35;;
73779;SDS011;62093;37.614;15.072;2023-03-23T11:16:21;7.90;;;5.33;;
73779;SDS011;62093;37.614;15.072;2023-03-23T11:18:51;7.75;;;5.10;;
73779;SDS011;62093;37.614;15.072;2023-03-23T11:21:17;7.82;;;5.35;;
73779;SDS011;62093;37.614;15.072;2023-03-23T11:23:48;7.82;;;5.30;;
73779;SDS011;62093;37.614;15.072;2023-03-23T11:26:21;7.47;;;5.00;;
73779;SDS011;62093;37.614;15.072;2023-03-23T11:31:41;7.60;;;5.05;;
73779;SDS011;62093;37.614;15.072;2023-03-23T11:36:48;7.65;;;5.00;;
73779;SDS011;62093;37.614;15.072;2023-03-23T11:41:53;7.18;;;5.13;;
73779;SDS011;62093;37.614;15.072;2023-03-23T11:44:21;7.85;;;5.15;;
73779;SDS011;62093;37.614;15.072;2023-03-23T11:49:42;7.68;;;4.90;;
73779;SDS011;62093;37.614;15.072;2023-03-23T11:52:29;6.40;;;4.20;;
73779;SDS011;62093;37.614;15.072;2023-03-23T11:55:50;7.90;;;5.25;;
73779;SDS011;62093;37.614;15.072;2023-03-23T11:58:18;7.57;;;5.00;;
73779;SDS011;62093;37.614;15.072;2023-03-23T12:00:48;7.18;;;5.15;;
73779;SDS011;62093;37.614;15.072;2023-03-23T12:03:20;7.53;;;4.97;;
73779;SDS011;62093;37.614;15.072;2023-03-23T12:06:06;7.57;;;5.33;;
73779;SDS011;62093;37.614;15.072;2023-03-23T12:11:45;7.25;;;5.10;;
73779;SDS011;62093;37.614;15.072;2023-03-23T12:16:50;8.23;;;5.25;;
73779;SDS011;62093;37.614;15.072;2023-03-23T12:19:48;7.00;;;5.07;;
73779;SDS011;62093;37.614;15.072;2023-03-23T12:25:12;7.38;;;4.80;;
73779;SDS011;62093;37.614;15.072;2023-03-23T12:28:55;7.63;;;4.80;;
73779;SDS011;62093;37.614;15.072;2023-03-23T12:42:36;7.50;;;4.60;;
73779;SDS011;62093;37.614;15.072;2023-03-23T12:45:40;6.88;;;4.47;;
73779;SDS011;62093;37.614;15.072;2023-03-23T12:48:22;7.37;;;4.50;;
73779;SDS011;62093;37.614;15.072;2023-03-23T12:54:20;7.32;;;4.47;;
73779;SDS011;62093;37.614;15.072;2023-03-23T12:56:52;7.40;;;5.03;;
73779;SDS011;62093;37.614;15.072;2023-03-23T12:59:32;7.40;;;4.90;;
73779;SDS011;62093;37.614;15.072;2023-03-23T13:02:20;6.43;;;4.37;;
73779;SDS011;62093;37.614;15.072;2023-03-23T13:05:10;7.50;;;4.65;;
73779;SDS011;62093;37.614;15.072;2023-03-23T13:07:53;7.13;;;5.05;;
73779;SDS011;62093;37.614;15.072;2023-03-23T13:10:50;7.32;;;4.97;;
73779;SDS011;62093;37.614;15.072;2023-03-23T13:13:25;7.50;;;4.95;;
73779;SDS011;62093;37.614;15.072;2023-03-23T13:16:09;7.37;;;5.17;;
73779;SDS011;62093;37.614;15.072;2023-03-23T13:18:49;6.85;;;4.68;;
73779;SDS011;62093;37.614;15.072;2023-03-23T13:21:41;7.35;;;4.95;;
73779;SDS011;62093;37.614;15.072;2023-03-23T13:24:10;7.75;;;5.00;;
73779;SDS011;62093;37.614;15.072;2023-03-23T13:26:41;7.22;;;4.93;;
73779;SDS011;62093;37.614;15.072;2023-03-23T13:29:15;7.67;;;5.17;;
73779;SDS011;62093;37.614;15.072;2023-03-23T13:31:47;7.30;;;5.07;;
73779;SDS011;62093;37.614;15.072;2023-03-23T13:34:19;7.68;;;4.70;;
73779;SDS011;62093;37.614;15.072;2023-03-23T13:36:54;7.35;;;4.88;;
73779;SDS011;62093;37.614;15.072;2023-03-23T13:39:30;6.95;;;4.80;;
73779;SDS011;62093;37.614;15.072;2023-03-23T13:49:59;7.75;;;5.22;;
73779;SDS011;62093;37.614;15.072;2023-03-23T13:52:52;7.40;;;4.78;;
73779;SDS011;62093;37.614;15.072;2023-03-23T13:55:30;6.93;;;4.67;;
73779;SDS011;62093;37.614;15.072;2023-03-23T14:13:10;7.22;;;4.78;;
73779;SDS011;62093;37.614;15.072;2023-03-23T14:15:45;7.80;;;4.90;;
73779;SDS011;62093;37.614;15.072;2023-03-23T14:18:31;7.80;;;4.83;;
73779;SDS011;62093;37.614;15.072;2023-03-23T14:21:01;6.95;;;4.55;;
73779;SDS011;62093;37.614;15.072;2023-03-23T14:23:30;8.00;;;4.70;;
73779;SDS011;62093;37.614;15.072;2023-03-23T14:26:02;6.97;;;4.50;;
73779;SDS011;62093;37.614;15.072;2023-03-23T14:28:38;7.07;;;4.45;;
73779;SDS011;62093;37.614;15.072;2023-03-23T14:31:13;8.03;;;4.87;;
73779;SDS011;62093;37.614;15.072;2023-03-23T14:33:50;8.32;;;5.22;;
73779;SDS011;62093;37.614;15.072;2023-03-23T14:36:25;7.50;;;4.95;;
73779;SDS011;62093;37.614;15.072;2023-03-23T14:39:35;7.00;;;4.55;;
73779;SDS011;62093;37.614;15.072;2023-03-23T14:41:47;7.45;;;5.07;;
73779;SDS011;62093;37.614;15.072;2023-03-23T14:44:15;6.50;;;4.30;;
73779;SDS011;62093;37.614;15.072;2023-03-23T14:46:50;7.20;;;4.90;;
73779;SDS011;62093;37.614;15.072;2023-03-23T14:49:18;7.00;;;4.55;;
73779;SDS011;62093;37.614;15.072;2023-03-23T14:51:51;7.57;;;4.55;;
73779;SDS011;62093;37.614;15.072;2023-03-23T14:54:25;7.15;;;4.60;;
73779;SDS011;62093;37.614;15.072;2023-03-23T14:56:53;7.17;;;4.60;;
73779;SDS011;62093;37.614;15.072;2023-03-23T14:59:20;7.63;;;4.95;;
73779;SDS011;62093;37.614;15.072;2023-03-23T15:01:47;7.03;;;4.65;;
73779;SDS011;62093;37.614;15.072;2023-03-23T15:04:23;6.60;;;4.40;;
73779;SDS011;62093;37.614;15.072;2023-03-23T15:06:53;6.90;;;4.55;;
73779;SDS011;62093;37.614;15.072;2023-03-23T15:09:24;7.30;;;4.67;;
73779;SDS011;62093;37.614;15.072;2023-03-23T15:11:55;7.15;;;4.70;;
73779;SDS011;62093;37.614;15.072;2023-03-23T15:14:26;7.85;;;5.07;;
73779;SDS011;62093;37.614;15.072;2023-03-23T15:16:54;7.15;;;4.35;;
73779;SDS011;62093;37.614;15.072;2023-03-23T15:19:24;7.63;;;4.80;;
73779;SDS011;62093;37.614;15.072;2023-03-23T15:22:03;7.10;;;4.77;;
73779;SDS011;62093;37.614;15.072;2023-03-23T15:24:40;7.32;;;4.85;;
73779;SDS011;62093;37.614;15.072;2023-03-23T15:29:53;7.10;;;4.60;;
73779;SDS011;62093;37.614;15.072;2023-03-23T15:32:27;7.18;;;4.95;;
73779;SDS011;62093;37.614;15.072;2023-03-23T15:34:56;7.37;;;4.70;;
73779;SDS011;62093;37.614;15.072;2023-03-23T15:37:25;7.97;;;4.82;;
73779;SDS011;62093;37.614;15.072;2023-03-23T15:39:54;9.68;;;5.80;;
73779;SDS011;62093;37.614;15.072;2023-03-23T15:42:22;8.10;;;5.30;;
73779;SDS011;62093;37.614;15.072;2023-03-23T15:44:55;7.40;;;5.32;;
73779;SDS011;62093;37.614;15.072;2023-03-23T15:50:18;7.88;;;5.00;;
73779;SDS011;62093;37.614;15.072;2023-03-23T15:52:44;7.60;;;4.80;;
73779;SDS011;62093;37.614;15.072;2023-03-23T15:55:29;7.80;;;4.65;;
73779;SDS011;62093;37.614;15.072;2023-03-23T15:58:12;7.72;;;5.20;;
73779;SDS011;62093;37.614;15.072;2023-03-23T16:00:39;8.43;;;5.57;;
73779;SDS011;62093;37.614;15.072;2023-03-23T16:03:07;7.50;;;4.75;;
73779;SDS011;62093;37.614;15.072;2023-03-23T16:05:36;7.80;;;4.78;;
73779;SDS011;62093;37.614;15.072;2023-03-23T16:08:03;7.90;;;5.00;;
73779;SDS011;62093;37.614;15.072;2023-03-23T16:10:29;7.38;;;4.72;;
73779;SDS011;62093;37.614;15.072;2023-03-23T16:12:55;7.50;;;4.80;;
73779;SDS011;62093;37.614;15.072;2023-03-23T16:15:21;7.72;;;4.70;;
73779;SDS011;62093;37.614;15.072;2023-03-23T16:17:47;7.10;;;4.75;;
73779;SDS011;62093;37.614;15.072;2023-03-23T16:20:20;8.25;;;5.28;;
73779;SDS011;62093;37.614;15.072;2023-03-23T16:22:47;7.60;;;5.17;;
73779;SDS011;62093;37.614;15.072;2023-03-23T16:25:14;7.85;;;5.20;;
73779;SDS011;62093;37.614;15.072;2023-03-23T16:27:41;8.18;;;5.60;;
73779;SDS011;62093;37.614;15.072;2023-03-23T16:32:41;7.68;;;5.07;;
73779;SDS011;62093;37.614;15.072;2023-03-23T16:35:08;8.03;;;5.13;;
73779;SDS011;62093;37.614;15.072;2023-03-23T16:37:34;8.88;;;4.95;;
73779;SDS011;62093;37.614;15.072;2023-03-23T16:40:02;7.35;;;4.78;;
73779;SDS011;62093;37.614;15.072;2023-03-23T16:42:28;6.95;;;4.70;;
73779;SDS011;62093;37.614;15.072;2023-03-23T16:44:54;8.07;;;5.20;;
73779;SDS011;62093;37.614;15.072;2023-03-23T16:47:20;7.47;;;4.70;;
73779;SDS011;62093;37.614;15.072;2023-03-23T16:49:50;10.27;;;5.43;;
73779;SDS011;62093;37.614;15.072;2023-03-23T16:52:17;9.88;;;6.50;;
73779;SDS011;62093;37.614;15.072;2023-03-23T16:54:43;9.07;;;5.03;;
73779;SDS011;62093;37.614;15.072;2023-03-23T16:57:09;8.38;;;5.63;;
73779;SDS011;62093;37.614;15.072;2023-03-23T16:59:35;8.25;;;4.68;;
73779;SDS011;62093;37.614;15.072;2023-03-23T17:02:01;7.50;;;4.97;;